Decoded Metar for KFDW (FAIRFIELD COUNTY AIRPORT in SC, USA) (IATA:N/A) | Meteo·Mobile Aviation Weather
aviador You're here:

KFDW Decoded Metar

FAIRFIELD COUNTY AIRPORT in SC, USA
Report Time2018-08-21 11:55:00
UTC Time2018-08-21 12:14:20
Flight Rules mvfr MVFR
Wind210° at 04 kt
W.Decomp.*RWY 22: 4.0 kt HW 0.2 kt LCW
W.Rank210° ranks 1
Current wind is below 210° avg. (5.5)
Visibility9999 m
Phenomena:N/A
Clouds:Scattered 012 Hf
Broken 020 Hf
Ceiling2,000 ft
Temp22°C (ISA +8)
Dew Point22°C (100% RH)
QNH1018 hPa
Density Alt1,709 ft
Elevation577 ft
Report Wrong Elevation
Raw Report
METAR KFDW 211155Z AUTO 21004KT 10SM SCT012 BKN020 22/22 A3006 RMK
AO1=

Extra information for KFDW:More info

Metar Taf Metar & Taf Last 4 Metars F.Rules Stats Wind Profile Meteogram Temp Stats Airport Information Weather charts Add Link Nearby VenuesMetar ALERT Operation Metar Decoded Social comments

AIRNAV info for KFDW